Time;durP1;ratioP1;P1;durP2;ratioP2;P2;SDS_P1;SDS_P2;PMS_P1;PMS_P2;Temp;Humidity;BMP_temperature;BMP_pressure;BME280_temperature;BME280_humidity;BME280_pressure;Samples;Min_cycle;Max_cycle;Signal;HPM_P1;HPM_P2
2024/03/19 00:00:34;;;;;;;;;;;22.80;41.60;;;;;;3030798;19;4701;-25
2024/03/19 00:01:34;;;;;;;;;;;22.80;42.20;;;;;;3053518;19;4733;-27
2024/03/19 00:02:35;;;;;;;;;;;22.80;41.50;;;;;;3031355;19;5116;-26
2024/03/19 00:03:36;;;;;;;;;;;22.70;41.50;;;;;;3052455;19;4741;-27
2024/03/19 00:04:36;;;;;;;;;;;22.70;41.50;;;;;;3052642;19;4707;-25
2024/03/19 00:05:37;;;;;;;;;;;22.70;41.50;;;;;;3030612;19;4731;-25
2024/03/19 00:06:37;;;;;;;;;;;22.70;41.60;;;;;;3052458;19;4904;-28
2024/03/19 00:07:38;;;;;;;;;;;22.70;41.60;;;;;;3053266;19;4714;-27
2024/03/19 00:08:39;;;;;;;;;;;22.70;41.50;;;;;;3030567;19;4669;-34
2024/03/19 00:09:39;;;;;;;;;;;22.60;41.40;;;;;;3052298;19;4735;-27
2024/03/19 00:10:40;;;;;;;;;;;23.00;41.70;;;;;;3031713;19;4851;-25
2024/03/19 00:11:41;;;;;;;;;;;22.70;41.50;;;;;;3052687;19;4784;-25
2024/03/19 00:12:41;;;;;;;;;;;22.70;41.50;;;;;;3052080;19;4739;-25
2024/03/19 00:13:42;;;;;;;;;;;22.70;41.60;;;;;;3031352;19;4685;-24
2024/03/19 00:14:43;;;;;;;;;;;22.70;41.40;;;;;;3051973;19;4729;-27
2024/03/19 00:15:51;;;;;;;;;;;22.70;41.40;;;;;;3052043;19;4726;-26
2024/03/19 00:16:51;;;;;;;;;;;22.70;41.40;;;;;;3031125;19;4647;-27
2024/03/19 00:17:52;;;;;;;;;;;22.70;41.40;;;;;;3052645;19;4742;-25
2024/03/19 00:18:53;;;;;;;;;;;22.70;41.50;;;;;;3031974;19;4752;-36
2024/03/19 00:19:53;;;;;;;;;;;22.70;41.40;;;;;;3052107;19;4639;-31
2024/03/19 00:20:54;;;;;;;;;;;22.70;41.50;;;;;;3052438;19;4756;-34
2024/03/19 00:21:55;;;;;;;;;;;22.70;41.40;;;;;;3031416;19;4881;-34
2024/03/19 00:22:56;;;;;;;;;;;22.70;41.40;;;;;;3052479;19;4763;-33
2024/03/19 00:23:56;;;;;;;;;;;22.70;41.60;;;;;;3030998;19;4706;-31
2024/03/19 00:24:57;;;;;;;;;;;22.70;41.40;;;;;;3050351;19;4725;-32
2024/03/19 00:25:57;;;;;;;;;;;22.60;41.40;;;;;;3050935;19;4725;-31
2024/03/19 00:26:58;;;;;;;;;;;22.60;41.40;;;;;;3029643;19;4761;-31
2024/03/19 00:27:59;;;;;;;;;;;22.60;41.40;;;;;;3050981;19;4857;-32
2024/03/19 00:29:00;;;;;;;;;;;22.60;41.40;;;;;;3050997;19;4876;-37
2024/03/19 00:30:03;;;;;;;;;;;22.60;41.40;;;;;;3028541;19;4843;-33
2024/03/19 00:31:03;;;;;;;;;;;22.60;41.40;;;;;;3050240;19;4702;-32
2024/03/19 00:32:05;;;;;;;;;;;22.60;41.40;;;;;;3029464;19;4772;-30
2024/03/19 00:33:06;;;;;;;;;;;22.60;41.40;;;;;;3050283;19;4671;-32
2024/03/19 00:34:08;;;;;;;;;;;22.60;41.40;;;;;;3050663;19;4700;-32
2024/03/19 00:35:09;;;;;;;;;;;22.60;41.40;;;;;;3028293;19;4790;-39
2024/03/19 00:36:10;;;;;;;;;;;22.60;41.40;;;;;;3051445;19;4748;-32
2024/03/19 00:37:10;;;;;;;;;;;22.60;41.50;;;;;;3030874;19;4132;-31
2024/03/19 00:38:12;;;;;;;;;;;22.60;41.50;;;;;;3051633;19;4747;-34
2024/03/19 00:39:12;;;;;;;;;;;22.60;41.40;;;;;;3051506;19;4718;-34
2024/03/19 00:40:13;;;;;;;;;;;22.40;41.80;;;;;;3030260;19;4674;-34
2024/03/19 00:41:14;;;;;;;;;;;22.60;41.50;;;;;;3051840;19;4749;-32
2024/03/19 00:42:14;;;;;;;;;;;22.60;41.50;;;;;;3051419;19;4719;-32
2024/03/19 00:43:15;;;;;;;;;;;22.60;41.60;;;;;;3029406;19;4597;-32
2024/03/19 00:44:15;;;;;;;;;;;22.60;41.60;;;;;;3051351;19;4902;-32
2024/03/19 00:45:17;;;;;;;;;;;22.60;41.50;;;;;;3030737;19;4122;-35
2024/03/19 00:46:19;;;;;;;;;;;22.60;41.60;;;;;;3050567;19;4663;-33
2024/03/19 00:47:19;;;;;;;;;;;22.60;41.60;;;;;;3051110;19;4745;-31
2024/03/19 00:48:20;;;;;;;;;;;22.60;41.60;;;;;;3029783;19;4622;-33
2024/03/19 00:49:21;;;;;;;;;;;22.60;41.60;;;;;;3049679;19;4738;-34
2024/03/19 00:50:22;;;;;;;;;;;22.40;41.50;;;;;;3050537;19;4700;-32
2024/03/19 00:51:22;;;;;;;;;;;22.60;41.60;;;;;;3029279;19;4681;-32
2024/03/19 00:52:23;;;;;;;;;;;22.60;41.60;;;;;;3050896;19;4743;-34
2024/03/19 00:53:23;;;;;;;;;;;22.50;41.60;;;;;;3029361;19;4761;-34
2024/03/19 00:54:26;;;;;;;;;;;22.50;41.60;;;;;;3051146;19;4737;-32
2024/03/19 00:55:26;;;;;;;;;;;22.50;41.60;;;;;;3052022;19;4765;-31
2024/03/19 00:56:27;;;;;;;;;;;22.50;41.60;;;;;;3032590;19;4547;-32
2024/03/19 00:57:28;;;;;;;;;;;22.50;41.60;;;;;;3052525;19;4882;-30
2024/03/19 00:58:28;;;;;;;;;;;22.50;41.60;;;;;;3052798;19;4742;-31
2024/03/19 00:59:29;;;;;;;;;;;22.50;41.60;;;;;;3028654;19;4675;-32
2024/03/19 01:00:29;;;;;;;;;;;22.50;41.70;;;;;;3052252;19;4812;-30
2024/03/19 01:01:31;;;;;;;;;;;22.50;41.60;;;;;;3031573;19;4752;-31
2024/03/19 01:02:32;;;;;;;;;;;22.50;41.60;;;;;;3052341;19;4758;-29
2024/03/19 01:03:33;;;;;;;;;;;22.50;41.60;;;;;;3052687;19;4813;-30
2024/03/19 01:04:34;;;;;;;;;;;22.50;41.70;;;;;;3029800;19;4628;-30
2024/03/19 01:05:35;;;;;;;;;;;22.50;41.60;;;;;;3054314;19;4742;-32
2024/03/19 01:06:36;;;;;;;;;;;22.50;41.60;;;;;;3032083;19;4850;-33
2024/03/19 01:07:43;;;;;;;;;;;22.50;41.70;;;;;;3052855;19;4740;-30
2024/03/19 01:08:43;;;;;;;;;;;22.50;41.70;;;;;;3051488;19;4754;-30
2024/03/19 01:09:44;;;;;;;;;;;22.50;41.70;;;;;;3032210;19;4743;-30
2024/03/19 01:10:45;;;;;;;;;;;22.50;41.70;;;;;;3052863;19;4741;-32
2024/03/19 01:11:45;;;;;;;;;;;22.50;41.70;;;;;;3053210;19;4840;-32
2024/03/19 01:12:46;;;;;;;;;;;22.50;41.70;;;;;;3031264;19;4753;-31
2024/03/19 01:13:46;;;;;;;;;;;22.50;41.70;;;;;;3052769;19;4787;-32
2024/03/19 01:14:47;;;;;;;;;;;22.50;41.60;;;;;;3028716;19;4733;-32
2024/03/19 01:15:48;;;;;;;;;;;22.50;41.60;;;;;;3054194;19;4715;-32
2024/03/19 01:16:48;;;;;;;;;;;22.50;41.60;;;;;;3051718;19;4815;-33
2024/03/19 01:17:49;;;;;;;;;;;22.50;41.60;;;;;;3030109;19;4765;-34
2024/03/19 01:18:49;;;;;;;;;;;22.50;41.60;;;;;;3050769;19;4896;-32
2024/03/19 01:19:50;;;;;;;;;;;22.50;41.70;;;;;;3035114;19;4721;-26
2024/03/19 01:20:53;;;;;;;;;;;22.50;41.60;;;;;;3052237;19;5005;-27
2024/03/19 01:21:54;;;;;;;;;;;22.40;41.60;;;;;;3052417;19;4712;-24
2024/03/19 01:22:54;;;;;;;;;;;22.40;41.60;;;;;;3029247;19;4798;-25
2024/03/19 01:23:56;;;;;;;;;;;22.50;41.70;;;;;;3048279;19;4803;-26
2024/03/19 01:24:58;;;;;;;;;;;22.50;41.70;;;;;;3053652;19;4923;-24
2024/03/19 01:25:58;;;;;;;;;;;22.40;41.70;;;;;;3030751;19;4869;-25
2024/03/19 01:26:59;;;;;;;;;;;22.40;41.70;;;;;;3052833;19;4693;-26
2024/03/19 01:27:59;;;;;;;;;;;22.40;41.70;;;;;;3031625;19;4725;-24
2024/03/19 01:29:00;;;;;;;;;;;22.40;41.70;;;;;;3051123;19;4702;-25
2024/03/19 01:30:01;;;;;;;;;;;22.40;41.70;;;;;;3053444;19;4674;-24
2024/03/19 01:31:02;;;;;;;;;;;22.40;41.70;;;;;;3030914;19;4799;-25
2024/03/19 01:32:03;;;;;;;;;;;22.40;41.70;;;;;;3051928;19;4610;-29
2024/03/19 01:33:04;;;;;;;;;;;22.40;41.80;;;;;;3052534;19;4680;-25
2024/03/19 01:34:05;;;;;;;;;;;22.40;41.80;;;;;;3029867;19;4721;-25
2024/03/19 01:35:05;;;;;;;;;;;22.40;41.70;;;;;;3051888;19;4707;-27
2024/03/19 01:36:06;;;;;;;;;;;22.40;41.70;;;;;;3027900;19;4612;-25
2024/03/19 01:37:07;;;;;;;;;;;22.40;41.80;;;;;;3050117;19;22011;-26
2024/03/19 01:38:07;;;;;;;;;;;22.40;41.70;;;;;;3050997;19;4704;-26
2024/03/19 01:39:09;;;;;;;;;;;22.40;41.70;;;;;;3030081;19;4832;-28
2024/03/19 01:40:10;;;;;;;;;;;22.40;41.80;;;;;;3050578;19;4820;-26
2024/03/19 01:41:11;;;;;;;;;;;22.40;41.80;;;;;;3028073;19;4772;-30
2024/03/19 01:42:12;;;;;;;;;;;22.40;41.80;;;;;;3053232;19;2619;-24
2024/03/19 01:43:13;;;;;;;;;;;22.40;41.80;;;;;;3051177;19;4693;-26
2024/03/19 01:44:18;;;;;;;;;;;22.40;41.70;;;;;;3030007;19;4741;-24
2024/03/19 01:45:22;;;;;;;;;;;22.40;41.70;;;;;;3052069;19;4863;-24
2024/03/19 01:46:27;;;;;;;;;;;22.30;41.70;;;;;;3052497;19;4731;-26
2024/03/19 01:47:27;;;;;;;;;;;22.40;41.80;;;;;;3029311;19;5041;-25
2024/03/19 01:48:28;;;;;;;;;;;22.40;41.80;;;;;;3053037;19;4715;-26
2024/03/19 01:49:29;;;;;;;;;;;22.30;41.90;;;;;;3030625;19;4839;-25
2024/03/19 01:50:30;;;;;;;;;;;22.30;41.90;;;;;;3051981;19;4771;-25
2024/03/19 01:51:31;;;;;;;;;;;22.30;41.80;;;;;;3050591;19;4726;-27
2024/03/19 01:52:34;;;;;;;;;;;22.40;42.50;;;;;;3028788;19;4612;-24
2024/03/19 01:53:34;;;;;;;;;;;22.40;41.80;;;;;;3048773;19;4704;-24
2024/03/19 01:54:35;;;;;;;;;;;22.30;41.80;;;;;;3028585;19;4906;-26
2024/03/19 01:55:36;;;;;;;;;;;22.30;41.80;;;;;;3050713;19;4707;-26
2024/03/19 01:56:37;;;;;;;;;;;22.30;41.80;;;;;;3050297;19;4937;-26
2024/03/19 01:57:37;;;;;;;;;;;22.30;41.90;;;;;;3028704;19;4696;-26
2024/03/19 01:58:38;;;;;;;;;;;22.30;41.90;;;;;;3050167;19;4746;-24
2024/03/19 01:59:39;;;;;;;;;;;22.30;41.90;;;;;;3049268;19;4978;-25
2024/03/19 02:00:39;;;;;;;;;;;22.30;41.80;;;;;;3028032;19;4699;-24
2024/03/19 02:01:40;;;;;;;;;;;22.30;41.80;;;;;;3050444;19;4811;-26
2024/03/19 02:02:41;;;;;;;;;;;22.30;41.80;;;;;;3028219;19;4705;-25
2024/03/19 02:03:45;;;;;;;;;;;22.30;41.80;;;;;;3051460;19;4795;-26
2024/03/19 02:04:45;;;;;;;;;;;22.30;41.90;;;;;;3052046;19;4675;-26
2024/03/19 02:05:46;;;;;;;;;;;22.30;41.90;;;;;;3029635;19;4692;-27
2024/03/19 02:06:47;;;;;;;;;;;22.30;41.90;;;;;;3051139;19;4721;-29
2024/03/19 02:07:47;;;;;;;;;;;22.30;41.90;;;;;;3052059;19;4736;-24
2024/03/19 02:08:57;;;;;;;;;;;22.30;41.90;;;;;;3028420;19;4657;-25
2024/03/19 02:09:59;;;;;;;;;;;22.30;41.90;;;;;;3051878;19;4683;-27
2024/03/19 02:10:59;;;;;;;;;;;22.30;41.90;;;;;;3030503;19;4645;-24
2024/03/19 02:12:00;;;;;;;;;;;22.30;41.90;;;;;;3051363;19;4668;-24
2024/03/19 02:13:01;;;;;;;;;;;22.30;41.80;;;;;;3052029;19;4785;-26
2024/03/19 02:14:02;;;;;;;;;;;22.30;41.90;;;;;;3029034;19;4722;-27
2024/03/19 02:15:03;;;;;;;;;;;22.30;41.80;;;;;;3051457;19;4594;-25
2024/03/19 02:16:04;;;;;;;;;;;22.30;41.80;;;;;;3030830;19;4697;-27
2024/03/19 02:17:05;;;;;;;;;;;22.30;41.90;;;;;;3050397;19;4747;-24
2024/03/19 02:18:06;;;;;;;;;;;22.30;41.90;;;;;;3051585;19;4695;-24
2024/03/19 02:19:07;;;;;;;;;;;22.30;41.90;;;;;;3028649;19;4830;-27
2024/03/19 02:20:12;;;;;;;;;;;22.30;41.90;;;;;;3050065;19;4974;-26
2024/03/19 02:21:13;;;;;;;;;;;22.30;41.90;;;;;;3029788;19;4819;-25
2024/03/19 02:22:15;;;;;;;;;;;22.20;41.80;;;;;;3050701;19;4704;-27
2024/03/19 02:23:17;;;;;;;;;;;22.20;41.90;;;;;;3049433;19;1331;-25
2024/03/19 02:24:17;;;;;;;;;;;22.30;42.00;;;;;;3029061;19;4939;-24
2024/03/19 02:25:18;;;;;;;;;;;22.20;41.90;;;;;;3051126;19;4734;-26
2024/03/19 02:26:19;;;;;;;;;;;22.20;42.00;;;;;;3051206;19;4721;-25
2024/03/19 02:27:19;;;;;;;;;;;22.20;41.90;;;;;;3029088;19;4655;-24
2024/03/19 02:28:20;;;;;;;;;;;22.20;42.00;;;;;;3049968;19;4747;-27
2024/03/19 02:29:20;;;;;;;;;;;22.20;42.00;;;;;;3028134;19;4696;-26
2024/03/19 02:30:21;;;;;;;;;;;22.20;42.00;;;;;;3050232;19;4721;-24
2024/03/19 02:31:24;;;;;;;;;;;22.20;41.90;;;;;;3051092;19;4737;-32
2024/03/19 02:32:25;;;;;;;;;;;22.20;41.90;;;;;;3029913;19;4609;-26
2024/03/19 02:33:25;;;;;;;;;;;22.20;42.00;;;;;;3050184;19;5008;-25
2024/03/19 02:34:26;;;;;;;;;;;22.20;42.00;;;;;;3050322;19;4701;-25
2024/03/19 02:35:26;;;;;;;;;;;22.20;42.00;;;;;;3029130;19;4667;-25
2024/03/19 02:36:27;;;;;;;;;;;22.20;42.00;;;;;;3051577;19;4712;-24
2024/03/19 02:37:28;;;;;;;;;;;22.20;42.00;;;;;;3030288;19;4719;-33
2024/03/19 02:38:28;;;;;;;;;;;22.20;42.00;;;;;;3050489;19;4728;-31
2024/03/19 02:39:29;;;;;;;;;;;22.20;42.00;;;;;;3051876;19;4717;-35
2024/03/19 02:40:30;;;;;;;;;;;22.10;42.00;;;;;;3030303;19;4657;-33
2024/03/19 02:41:31;;;;;;;;;;;22.20;42.70;;;;;;3051286;19;4705;-31
2024/03/19 02:42:32;;;;;;;;;;;22.10;42.00;;;;;;3030046;19;4775;-31
2024/03/19 02:43:33;;;;;;;;;;;22.10;42.00;;;;;;3048773;19;4705;-32
2024/03/19 02:44:34;;;;;;;;;;;22.20;42.00;;;;;;3049929;19;4734;-29
2024/03/19 02:45:35;;;;;;;;;;;22.10;42.00;;;;;;3027923;19;4791;-31
2024/03/19 02:46:37;;;;;;;;;;;22.10;42.00;;;;;;3049375;19;4713;-31
2024/03/19 02:47:38;;;;;;;;;;;22.10;42.00;;;;;;3050233;19;4731;-28
2024/03/19 02:48:39;;;;;;;;;;;22.10;42.00;;;;;;3028080;19;4565;-32
2024/03/19 02:49:42;;;;;;;;;;;22.10;42.10;;;;;;3047999;19;4745;-30
2024/03/19 02:50:44;;;;;;;;;;;22.50;42.20;;;;;;3028305;19;4672;-31
2024/03/19 02:51:46;;;;;;;;;;;22.10;42.10;;;;;;3049401;19;4729;-31
2024/03/19 02:52:46;;;;;;;;;;;22.10;42.00;;;;;;3050040;19;4673;-30
2024/03/19 02:53:47;;;;;;;;;;;22.10;42.10;;;;;;3026999;19;4590;-31
2024/03/19 02:54:48;;;;;;;;;;;22.10;42.50;;;;;;3049881;19;4695;-33
2024/03/19 02:55:49;;;;;;;;;;;22.10;42.00;;;;;;3049447;19;4745;-33
2024/03/19 02:56:49;;;;;;;;;;;22.10;42.10;;;;;;3031062;19;4923;-32
2024/03/19 02:57:50;;;;;;;;;;;22.10;42.10;;;;;;3050751;19;4746;-29
2024/03/19 02:58:51;;;;;;;;;;;22.10;41.90;;;;;;3027821;19;4685;-32
2024/03/19 02:59:52;;;;;;;;;;;22.10;42.00;;;;;;3052790;19;4748;-32
2024/03/19 03:00:52;;;;;;;;;;;22.10;42.10;;;;;;3048444;19;4756;-34
2024/03/19 03:01:54;;;;;;;;;;;22.10;42.10;;;;;;3029055;19;4575;-34
2024/03/19 03:02:54;;;;;;;;;;;22.10;41.90;;;;;;3050883;19;4704;-31
2024/03/19 03:03:55;;;;;;;;;;;22.10;41.90;;;;;;3029192;19;4681;-33
2024/03/19 03:04:56;;;;;;;;;;;22.10;42.00;;;;;;3050087;19;4731;-33
2024/03/19 03:05:56;;;;;;;;;;;22.10;42.00;;;;;;3051421;19;4712;-30
2024/03/19 03:06:57;;;;;;;;;;;22.10;42.00;;;;;;3028277;19;5002;-32
2024/03/19 03:07:58;;;;;;;;;;;22.10;42.00;;;;;;3050423;19;4662;-31
2024/03/19 03:08:58;;;;;;;;;;;22.00;42.00;;;;;;3049945;19;4799;-34
2024/03/19 03:09:59;;;;;;;;;;;22.10;42.00;;;;;;3027248;19;4689;-35
2024/03/19 03:11:00;;;;;;;;;;;22.10;42.00;;;;;;3049886;19;4815;-30
2024/03/19 03:12:00;;;;;;;;;;;22.10;42.00;;;;;;3028227;19;4667;-30
2024/03/19 03:13:01;;;;;;;;;;;22.00;42.00;;;;;;3049602;19;4740;-32
2024/03/19 03:14:01;;;;;;;;;;;22.10;42.70;;;;;;3049474;19;4769;-31
2024/03/19 03:15:04;;;;;;;;;;;22.00;42.00;;;;;;3028126;19;4708;-35
2024/03/19 03:16:05;;;;;;;;;;;22.00;41.90;;;;;;3049315;19;4681;-31
2024/03/19 03:17:08;;;;;;;;;;;22.00;41.90;;;;;;3048680;19;4704;-30
2024/03/19 03:18:08;;;;;;;;;;;22.00;42.00;;;;;;3026660;19;4785;-34
2024/03/19 03:19:09;;;;;;;;;;;22.90;42.50;;;;;;3048418;19;4870;-32
2024/03/19 03:20:13;;;;;;;;;;;22.00;42.00;;;;;;3028656;19;4106;-34
2024/03/19 03:21:14;;;;;;;;;;;22.00;42.00;;;;;;3048986;19;4634;-31
2024/03/19 03:22:14;;;;;;;;;;;22.00;42.00;;;;;;3049014;19;4881;-31
2024/03/19 03:23:15;;;;;;;;;;;22.00;41.90;;;;;;3027157;19;4647;-31
2024/03/19 03:24:16;;;;;;;;;;;22.00;42.00;;;;;;3050876;19;4794;-33
2024/03/19 03:25:17;;;;;;;;;;;22.00;42.00;;;;;;3028503;19;4725;-34
2024/03/19 03:26:18;;;;;;;;;;;22.00;42.00;;;;;;3050775;19;4709;-34
2024/03/19 03:27:19;;;;;;;;;;;22.00;42.10;;;;;;3051325;19;4758;-30
2024/03/19 03:28:19;;;;;;;;;;;22.00;42.00;;;;;;3028577;19;4704;-31
2024/03/19 03:29:20;;;;;;;;;;;22.00;41.90;;;;;;3049695;19;4935;-31
2024/03/19 03:30:22;;;;;;;;;;;22.00;42.00;;;;;;3050829;19;4712;-34
2024/03/19 03:31:23;;;;;;;;;;;22.00;42.00;;;;;;3029377;19;4613;-34
2024/03/19 03:32:23;;;;;;;;;;;22.00;41.90;;;;;;3050348;19;4664;-31
2024/03/19 03:33:24;;;;;;;;;;;22.00;41.90;;;;;;3028304;19;4717;-30
2024/03/19 03:34:28;;;;;;;;;;;22.00;41.90;;;;;;3051393;19;4882;-31
2024/03/19 03:35:28;;;;;;;;;;;22.00;42.00;;;;;;3050812;19;4753;-33
2024/03/19 03:36:29;;;;;;;;;;;22.00;42.00;;;;;;3029578;19;4741;-33
2024/03/19 03:37:30;;;;;;;;;;;22.00;42.00;;;;;;3050572;19;4758;-31
2024/03/19 03:38:30;;;;;;;;;;;22.00;42.00;;;;;;3028611;19;4689;-33
2024/03/19 03:39:31;;;;;;;;;;;22.00;42.10;;;;;;3048215;19;5077;-30
2024/03/19 03:40:32;;;;;;;;;;;21.90;42.00;;;;;;3051369;19;4767;-33
2024/03/19 03:41:32;;;;;;;;;;;22.00;41.90;;;;;;3029127;19;4692;-32
2024/03/19 03:42:33;;;;;;;;;;;21.90;41.80;;;;;;3047814;19;4759;-33
2024/03/19 03:43:35;;;;;;;;;;;22.00;41.90;;;;;;3051571;19;4715;-30
2024/03/19 03:44:35;;;;;;;;;;;22.00;42.00;;;;;;3028739;19;4607;-33
2024/03/19 03:45:37;;;;;;;;;;;21.90;42.30;;;;;;3050632;19;4694;-33
2024/03/19 03:46:38;;;;;;;;;;;21.90;42.20;;;;;;3029392;19;4825;-33
2024/03/19 03:47:42;;;;;;;;;;;21.90;42.20;;;;;;3049649;19;4725;-30
2024/03/19 03:48:42;;;;;;;;;;;22.00;42.30;;;;;;3050585;19;4708;-30
2024/03/19 03:49:43;;;;;;;;;;;22.10;42.10;;;;;;3028281;19;4713;-32
2024/03/19 03:50:44;;;;;;;;;;;22.20;41.90;;;;;;3050634;19;4847;-32
2024/03/19 03:51:45;;;;;;;;;;;22.20;41.70;;;;;;3050827;19;4825;-34
2024/03/19 03:52:45;;;;;;;;;;;22.30;41.60;;;;;;3029676;19;4755;-31
2024/03/19 03:53:46;;;;;;;;;;;22.40;41.50;;;;;;3050146;19;4715;-34
2024/03/19 03:54:47;;;;;;;;;;;22.40;41.40;;;;;;3028207;19;4954;-32
2024/03/19 03:55:47;;;;;;;;;;;22.40;41.30;;;;;;3051847;19;4764;-33
2024/03/19 03:56:48;;;;;;;;;;;22.50;41.40;;;;;;3051341;19;4665;-30
2024/03/19 03:57:49;;;;;;;;;;;22.50;41.20;;;;;;3029874;19;4688;-31
2024/03/19 03:58:49;;;;;;;;;;;22.50;41.20;;;;;;3048991;19;4698;-34
2024/03/19 03:59:51;;;;;;;;;;;22.50;41.20;;;;;;3036357;19;4686;-31
2024/03/19 04:00:51;;;;;;;;;;;22.40;41.10;;;;;;3050378;19;4690;-32
2024/03/19 04:01:52;;;;;;;;;;;22.50;41.20;;;;;;3050935;19;4694;-34
2024/03/19 04:02:53;;;;;;;;;;;22.50;41.10;;;;;;3029423;19;4639;-31
2024/03/19 04:03:53;;;;;;;;;;;22.50;41.00;;;;;;3048204;19;4748;-32
2024/03/19 04:04:54;;;;;;;;;;;22.60;40.90;;;;;;3049640;19;4702;-33
2024/03/19 04:05:55;;;;;;;;;;;22.60;40.80;;;;;;3027330;19;4715;-34
2024/03/19 04:06:56;;;;;;;;;;;22.60;40.80;;;;;;3051089;19;4648;-33
2024/03/19 04:07:56;;;;;;;;;;;22.70;40.80;;;;;;3029284;19;4662;-30
2024/03/19 04:08:57;;;;;;;;;;;22.60;40.70;;;;;;3050041;19;4781;-30
2024/03/19 04:09:58;;;;;;;;;;;22.70;40.70;;;;;;3050080;19;4678;-33
2024/03/19 04:10:58;;;;;;;;;;;22.70;40.80;;;;;;3028770;19;4866;-31
2024/03/19 04:11:59;;;;;;;;;;;22.60;40.80;;;;;;3051317;19;4682;-30
2024/03/19 04:12:59;;;;;;;;;;;22.60;40.70;;;;;;3051059;19;4672;-33
2024/03/19 04:14:00;;;;;;;;;;;22.60;40.80;;;;;;3027584;19;4678;-30
2024/03/19 04:15:01;;;;;;;;;;;22.60;40.80;;;;;;3051266;19;4670;-33
2024/03/19 04:16:02;;;;;;;;;;;22.60;40.80;;;;;;3029288;19;4667;-34
2024/03/19 04:17:03;;;;;;;;;;;22.60;40.80;;;;;;3048057;19;5444;-34
2024/03/19 04:18:04;;;;;;;;;;;22.60;40.70;;;;;;3051505;19;4691;-31
2024/03/19 04:19:05;;;;;;;;;;;22.70;40.60;;;;;;3029205;19;4651;-34
2024/03/19 04:20:06;;;;;;;;;;;22.80;40.60;;;;;;3048899;19;4640;-34
2024/03/19 04:21:06;;;;;;;;;;;22.70;40.50;;;;;;3049714;19;4693;-29
2024/03/19 04:22:07;;;;;;;;;;;22.70;40.50;;;;;;3026511;19;4704;-31
2024/03/19 04:23:07;;;;;;;;;;;22.70;40.50;;;;;;3047754;19;4728;-31
2024/03/19 04:24:08;;;;;;;;;;;22.70;40.50;;;;;;3026553;19;4741;-33
2024/03/19 04:25:09;;;;;;;;;;;22.80;40.60;;;;;;3048448;19;4714;-34
2024/03/19 04:26:10;;;;;;;;;;;22.70;40.50;;;;;;3048337;19;4881;-32
2024/03/19 04:27:11;;;;;;;;;;;22.70;40.50;;;;;;3027451;19;4639;-35
2024/03/19 04:28:11;;;;;;;;;;;22.80;40.60;;;;;;3049551;19;1822;-31
2024/03/19 04:29:18;;;;;;;;;;;22.70;40.60;;;;;;3026842;19;4707;-31
2024/03/19 04:30:19;;;;;;;;;;;22.70;40.60;;;;;;3048505;19;4733;-35
2024/03/19 04:31:20;;;;;;;;;;;22.70;40.60;;;;;;3048620;19;4910;-33
2024/03/19 04:32:20;;;;;;;;;;;22.70;40.70;;;;;;3027833;19;4714;-34
2024/03/19 04:33:21;;;;;;;;;;;22.60;40.70;;;;;;3048745;19;4731;-33
2024/03/19 04:34:22;;;;;;;;;;;22.60;40.80;;;;;;3047638;19;4758;-33
2024/03/19 04:35:22;;;;;;;;;;;22.60;40.80;;;;;;3029129;19;4642;-32
2024/03/19 04:36:23;;;;;;;;;;;22.50;40.90;;;;;;3052932;19;4769;-33
2024/03/19 04:37:24;;;;;;;;;;;22.50;40.90;;;;;;3031599;19;4817;-33
2024/03/19 04:38:25;;;;;;;;;;;22.50;40.90;;;;;;3053591;19;4709;-34
2024/03/19 04:39:26;;;;;;;;;;;22.50;41.00;;;;;;3053024;19;4743;-32
2024/03/19 04:40:27;;;;;;;;;;;22.40;40.90;;;;;;3030385;19;4612;-34
2024/03/19 04:41:27;;;;;;;;;;;22.40;41.00;;;;;;3051716;19;4689;-33
2024/03/19 04:42:29;;;;;;;;;;;22.40;41.10;;;;;;3050599;19;4755;-35
2024/03/19 04:43:30;;;;;;;;;;;22.40;41.80;;;;;;3028723;19;4633;-30
2024/03/19 04:44:31;;;;;;;;;;;22.40;41.20;;;;;;3049525;19;4819;-32
2024/03/19 04:45:32;;;;;;;;;;;22.40;41.20;;;;;;3029265;19;4743;-34
2024/03/19 04:46:32;;;;;;;;;;;22.30;41.30;;;;;;3051747;19;4689;-29
2024/03/19 04:47:33;;;;;;;;;;;22.30;41.10;;;;;;3051321;19;4702;-32
2024/03/19 04:48:34;;;;;;;;;;;22.40;41.10;;;;;;3029943;19;4581;-34
2024/03/19 04:49:34;;;;;;;;;;;22.40;41.20;;;;;;3051167;19;4763;-34
2024/03/19 04:50:35;;;;;;;;;;;22.40;41.10;;;;;;3029024;19;4844;-32
2024/03/19 04:51:36;;;;;;;;;;;22.30;41.10;;;;;;3051540;19;4746;-33
2024/03/19 04:52:36;;;;;;;;;;;22.40;41.20;;;;;;3051396;19;4705;-34
2024/03/19 04:53:37;;;;;;;;;;;22.40;41.20;;;;;;3028749;19;4747;-34
2024/03/19 04:54:37;;;;;;;;;;;22.40;41.10;;;;;;3051728;19;4863;-32
2024/03/19 04:55:38;;;;;;;;;;;22.40;41.00;;;;;;3051536;19;4800;-33
2024/03/19 04:56:39;;;;;;;;;;;22.50;41.00;;;;;;3031185;19;4673;-32
2024/03/19 04:57:39;;;;;;;;;;;22.50;40.90;;;;;;3052943;19;4732;-32
2024/03/19 04:58:40;;;;;;;;;;;22.50;40.80;;;;;;3031292;19;4706;-32
2024/03/19 04:59:41;;;;;;;;;;;22.60;40.80;;;;;;3052437;19;4735;-27
2024/03/19 05:00:41;;;;;;;;;;;22.60;40.60;;;;;;3051972;19;4733;-26
2024/03/19 05:01:42;;;;;;;;;;;22.60;40.50;;;;;;3031422;19;4673;-24
2024/03/19 05:02:44;;;;;;;;;;;22.70;40.50;;;;;;3051852;19;4768;-26
2024/03/19 05:03:45;;;;;;;;;;;22.70;40.40;;;;;;3052871;19;4714;-27
2024/03/19 05:04:46;;;;;;;;;;;22.80;40.30;;;;;;3030759;19;4699;-25
2024/03/19 05:05:47;;;;;;;;;;;22.80;40.20;;;;;;3051631;19;4701;-25
2024/03/19 05:06:48;;;;;;;;;;;22.80;40.20;;;;;;3031873;19;4661;-25
2024/03/19 05:07:48;;;;;;;;;;;22.80;40.10;;;;;;3051401;19;4786;-27
2024/03/19 05:08:49;;;;;;;;;;;22.80;40.10;;;;;;3052231;19;4694;-28
2024/03/19 05:09:50;;;;;;;;;;;22.90;40.20;;;;;;3029394;19;5145;-27
2024/03/19 05:10:50;;;;;;;;;;;22.90;40.10;;;;;;3052129;19;4899;-25
2024/03/19 05:11:51;;;;;;;;;;;22.90;40.10;;;;;;3031200;19;4758;-27
2024/03/19 05:12:51;;;;;;;;;;;22.90;40.10;;;;;;3052812;19;4718;-25
2024/03/19 05:13:52;;;;;;;;;;;22.80;40.10;;;;;;3052810;19;4690;-27
2024/03/19 05:14:53;;;;;;;;;;;22.90;40.20;;;;;;3030818;19;4696;-24
2024/03/19 05:15:53;;;;;;;;;;;22.80;40.10;;;;;;3050957;19;4715;-26
2024/03/19 05:16:54;;;;;;;;;;;22.80;40.10;;;;;;3049537;19;4727;-29
2024/03/19 05:17:55;;;;;;;;;;;22.90;40.00;;;;;;3049477;19;5808;-26
2024/03/19 05:18:55;;;;;;;;;;;22.90;40.10;;;;;;3049553;19;4762;-26
2024/03/19 05:19:56;;;;;;;;;;;22.80;40.00;;;;;;3029524;19;4679;-24
2024/03/19 05:20:56;;;;;;;;;;;22.80;40.00;;;;;;3050257;19;4724;-26
2024/03/19 05:21:57;;;;;;;;;;;22.80;40.00;;;;;;3051237;19;4718;-24
2024/03/19 05:22:58;;;;;;;;;;;22.80;40.10;;;;;;3027311;19;4692;-25
2024/03/19 05:23:58;;;;;;;;;;;22.80;40.10;;;;;;3049849;19;4736;-29
2024/03/19 05:24:59;;;;;;;;;;;22.80;40.10;;;;;;3050276;19;4678;-25
2024/03/19 05:26:01;;;;;;;;;;;22.70;40.00;;;;;;3028842;19;4757;-27
2024/03/19 05:27:02;;;;;;;;;;;22.70;40.00;;;;;;3050638;19;4936;-24
2024/03/19 05:28:03;;;;;;;;;;;22.70;40.10;;;;;;3028873;19;4659;-26
2024/03/19 05:29:03;;;;;;;;;;;22.70;40.20;;;;;;3052446;19;4674;-24
2024/03/19 05:30:04;;;;;;;;;;;22.70;40.30;;;;;;3051709;19;4614;-27
2024/03/19 05:31:24;;;;;;;;;;;22.70;40.30;;;;;;3031033;19;4633;-26
2024/03/19 05:32:24;;;;;;;;;;;22.70;40.50;;;;;;2948346;19;2004288;-26
2024/03/19 05:33:25;;;;;;;;;;;22.70;40.50;;;;;;3031019;19;4585;-27
2024/03/19 05:34:26;;;;;;;;;;;22.60;40.60;;;;;;3051986;19;4686;-27
2024/03/19 05:35:26;;;;;;;;;;;22.60;40.70;;;;;;3052471;19;4914;-24
2024/03/19 05:36:27;;;;;;;;;;;22.60;40.70;;;;;;3029863;19;4629;-25
2024/03/19 05:37:28;;;;;;;;;;;22.50;40.70;;;;;;3053100;19;4754;-26
2024/03/19 05:38:28;;;;;;;;;;;22.50;40.80;;;;;;3051165;19;5285;-26
2024/03/19 05:39:30;;;;;;;;;;;22.50;40.80;;;;;;3029131;19;22048;-26
2024/03/19 05:40:31;;;;;;;;;;;22.50;40.80;;;;;;3051076;19;4792;-25
2024/03/19 05:41:32;;;;;;;;;;;22.60;40.80;;;;;;3030238;19;4822;-28
2024/03/19 05:42:33;;;;;;;;;;;22.50;40.70;;;;;;3051208;19;4720;-25
2024/03/19 05:43:33;;;;;;;;;;;22.60;40.60;;;;;;3053680;19;4674;-25
2024/03/19 05:44:34;;;;;;;;;;;22.60;40.60;;;;;;3030881;19;4699;-25
2024/03/19 05:45:35;;;;;;;;;;;22.60;40.60;;;;;;3051387;19;4740;-25
2024/03/19 05:46:35;;;;;;;;;;;22.60;40.50;;;;;;3030211;19;4730;-26
2024/03/19 05:47:36;;;;;;;;;;;22.60;40.50;;;;;;3052052;19;4701;-25
2024/03/19 05:48:38;;;;;;;;;;;22.60;40.50;;;;;;3050925;19;4723;-25
2024/03/19 05:49:38;;;;;;;;;;;22.60;40.40;;;;;;3028635;19;4808;-24
2024/03/19 05:50:39;;;;;;;;;;;22.60;40.40;;;;;;3051252;19;4743;-25
2024/03/19 05:51:40;;;;;;;;;;;22.60;40.40;;;;;;3051051;19;4678;-25
2024/03/19 05:52:41;;;;;;;;;;;22.60;40.40;;;;;;3029040;19;4667;-24
2024/03/19 05:53:42;;;;;;;;;;;22.60;40.30;;;;;;3050621;19;4812;-24
2024/03/19 05:54:43;;;;;;;;;;;22.60;40.40;;;;;;3029211;19;4722;-26
2024/03/19 05:55:43;;;;;;;;;;;22.70;40.30;;;;;;3051083;19;4926;-25
2024/03/19 05:56:44;;;;;;;;;;;22.80;40.40;;;;;;3050861;19;4718;-25
2024/03/19 05:57:44;;;;;;;;;;;22.70;40.30;;;;;;3028910;19;4741;-24
2024/03/19 05:58:45;;;;;;;;;;;22.70;40.30;;;;;;3050279;19;4751;-25
2024/03/19 05:59:46;;;;;;;;;;;22.60;40.30;;;;;;3050928;19;4728;-24
2024/03/19 06:00:47;;;;;;;;;;;22.60;40.30;;;;;;3028037;19;4675;-26